Time;durP1;ratioP1;P1;durP2;ratioP2;P2;SDS_P1;SDS_P2;PMS_P1;PMS_P2;Temp;Humidity;BMP_temperature;BMP_pressure;BME280_temperature;BME280_humidity;BME280_pressure;Samples;Min_cycle;Max_cycle;Signal;HPM_P1;HPM_P2
2022/04/11 00:00:49;;;;;;;10.48;3.10;;;;;;;;;;4907794;29;20048;-82
2022/04/11 00:03:16;;;;;;;6.85;2.55;;;;;;;;;;4912479;29;20398;-82
2022/04/11 00:05:44;;;;;;;10.77;4.15;;;;;;;;;;4914586;29;20063;-82
2022/04/11 00:08:11;;;;;;;10.13;3.55;;;;;;;;;;4913514;29;20083;-81
2022/04/11 00:10:39;;;;;;;13.07;3.38;;;;;;;;;;4912865;29;20086;-81
2022/04/11 00:13:06;;;;;;;16.38;3.30;;;;;;;;;;4914677;29;20754;-81
2022/04/11 00:15:38;;;;;;;12.43;3.38;;;;;;;;;;4916681;29;20074;-81
2022/04/11 00:18:07;;;;;;;11.77;2.97;;;;;;;;;;4917942;29;20055;-82
2022/04/11 00:20:34;;;;;;;10.98;2.97;;;;;;;;;;4931937;29;20055;-82
2022/04/11 00:23:04;;;;;;;18.10;3.88;;;;;;;;;;4932675;29;20532;-81
2022/04/11 00:25:31;;;;;;;12.18;3.17;;;;;;;;;;4918359;29;20063;-81
2022/04/11 00:27:59;;;;;;;6.75;2.63;;;;;;;;;;4918202;29;20055;-80
2022/04/11 00:30:26;;;;;;;20.83;4.13;;;;;;;;;;4917697;29;20462;-80
2022/04/11 00:32:53;;;;;;;21.15;3.25;;;;;;;;;;4906038;29;20127;-80
2022/04/11 00:35:20;;;;;;;11.27;3.25;;;;;;;;;;4928954;29;20059;-80
2022/04/11 00:37:48;;;;;;;12.38;3.30;;;;;;;;;;4911702;29;20143;-80
2022/04/11 00:40:15;;;;;;;14.73;3.13;;;;;;;;;;4915530;29;20052;-80
2022/04/11 00:42:42;;;;;;;9.35;3.17;;;;;;;;;;4933868;29;20091;-80
2022/04/11 00:45:10;;;;;;;10.75;2.78;;;;;;;;;;4918104;29;20063;-80
2022/04/11 00:47:37;;;;;;;17.85;3.90;;;;;;;;;;4917038;29;20131;-80
2022/04/11 00:50:04;;;;;;;14.18;3.55;;;;;;;;;;4932518;29;20056;-80
2022/04/11 00:52:33;;;;;;;16.40;6.18;;;;;;;;;;4917109;29;20095;-81
2022/04/11 00:55:00;;;;;;;10.60;2.65;;;;;;;;;;4931322;29;20107;-80
2022/04/11 00:57:27;;;;;;;8.20;2.15;;;;;;;;;;4917771;29;21735;-80
2022/04/11 00:59:55;;;;;;;22.02;3.42;;;;;;;;;;4931009;29;20386;-80
2022/04/11 01:02:22;;;;;;;16.60;2.95;;;;;;;;;;4916469;29;20577;-80
2022/04/11 01:04:49;;;;;;;14.30;2.65;;;;;;;;;;4909815;29;20754;-80
2022/04/11 01:07:19;;;;;;;8.82;2.67;;;;;;;;;;4927406;29;20153;-80
2022/04/11 01:09:46;;;;;;;13.18;3.35;;;;;;;;;;4916002;29;20098;-80
2022/04/11 01:12:15;;;;;;;21.38;3.00;;;;;;;;;;4916069;29;20083;-80
2022/04/11 01:14:43;;;;;;;14.73;3.13;;;;;;;;;;4912844;29;20056;-79
2022/04/11 01:17:11;;;;;;;14.75;3.30;;;;;;;;;;4915656;29;20056;-80
2022/04/11 01:19:39;;;;;;;16.27;3.38;;;;;;;;;;4917081;29;20048;-80
2022/04/11 01:22:06;;;;;;;16.42;2.75;;;;;;;;;;4916240;29;20052;-81
2022/04/11 01:24:34;;;;;;;12.30;3.65;;;;;;;;;;4915370;29;20127;-79
2022/04/11 01:27:01;;;;;;;22.05;3.58;;;;;;;;;;4915455;29;20254;-80
2022/04/11 01:29:29;;;;;;;12.98;3.28;;;;;;;;;;4930254;29;20071;-81
2022/04/11 01:31:56;;;;;;;17.13;4.00;;;;;;;;;;4909329;29;20048;-81
2022/04/11 01:34:23;;;;;;;18.20;4.50;;;;;;;;;;4915777;29;20052;-81
2022/04/11 01:36:50;;;;;;;11.43;3.50;;;;;;;;;;4916209;29;20079;-80
2022/04/11 01:39:17;;;;;;;23.30;3.72;;;;;;;;;;4915068;29;20087;-80
2022/04/11 01:41:45;;;;;;;10.77;3.45;;;;;;;;;;4911200;29;20154;-80
2022/04/11 01:44:13;;;;;;;8.90;3.05;;;;;;;;;;4925905;29;20099;-80
2022/04/11 01:46:42;;;;;;;24.50;4.65;;;;;;;;;;4913808;29;20075;-79
2022/04/11 01:49:09;;;;;;;13.70;3.65;;;;;;;;;;4930459;29;20083;-79
2022/04/11 01:51:36;;;;;;;22.60;3.92;;;;;;;;;;4916030;29;20076;-79
2022/04/11 01:54:03;;;;;;;17.75;3.42;;;;;;;;;;4930496;29;20127;-79
2022/04/11 01:56:30;;;;;;;13.85;3.67;;;;;;;;;;4931791;29;20078;-79
2022/04/11 01:58:58;;;;;;;21.38;4.63;;;;;;;;;;4914376;29;20154;-79
2022/04/11 02:01:25;;;;;;;12.38;3.13;;;;;;;;;;4927951;29;20127;-79
2022/04/11 02:03:52;;;;;;;17.00;3.90;;;;;;;;;;4914054;29;20458;-79
2022/04/11 02:06:20;;;;;;;22.00;3.97;;;;;;;;;;4915677;29;20087;-79
2022/04/11 02:08:47;;;;;;;18.85;3.60;;;;;;;;;;4915021;29;20526;-79
2022/04/11 02:11:14;;;;;;;16.85;3.55;;;;;;;;;;4910052;29;20068;-79
2022/04/11 02:13:41;;;;;;;18.70;4.35;;;;;;;;;;4913856;29;20800;-78
2022/04/11 02:16:09;;;;;;;21.05;4.10;;;;;;;;;;4935122;29;20055;-79
2022/04/11 02:18:36;;;;;;;15.82;3.75;;;;;;;;;;4917894;29;20055;-79
2022/04/11 02:21:03;;;;;;;15.68;3.58;;;;;;;;;;4914061;29;20458;-79
2022/04/11 02:23:31;;;;;;;18.50;3.80;;;;;;;;;;4929602;29;20052;-79
2022/04/11 02:25:58;;;;;;;12.82;3.80;;;;;;;;;;4930109;29;20048;-79
2022/04/11 02:28:25;;;;;;;19.40;5.40;;;;;;;;;;4915651;29;20088;-80
2022/04/11 02:30:53;;;;;;;20.65;4.20;;;;;;;;;;4909219;29;20082;-79
2022/04/11 02:33:21;;;;;;;15.35;4.20;;;;;;;;;;4925567;29;20059;-79
2022/04/11 02:35:48;;;;;;;19.40;5.05;;;;;;;;;;4944664;29;20489;-79
2022/04/11 02:38:15;;;;;;;18.50;4.88;;;;;;;;;;4915466;29;20131;-79
2022/04/11 02:40:42;;;;;;;16.35;4.28;;;;;;;;;;4914308;29;20494;-78
2022/04/11 02:43:10;;;;;;;19.90;5.30;;;;;;;;;;4913623;29;20083;-78
2022/04/11 02:45:37;;;;;;;20.52;4.70;;;;;;;;;;4912035;29;20143;-78
2022/04/11 02:48:05;;;;;;;19.85;5.00;;;;;;;;;;4914700;29;20481;-78
2022/04/11 02:50:32;;;;;;;24.67;4.80;;;;;;;;;;4914375;29;20094;-79
2022/04/11 02:53:01;;;;;;;27.27;5.97;;;;;;;;;;4915083;29;20487;-78
2022/04/11 02:55:31;;;;;;;12.43;4.63;;;;;;;;;;4928332;29;20050;-78
2022/04/11 02:57:58;;;;;;;14.55;4.82;;;;;;;;;;4906991;29;20155;-79
2022/04/11 03:00:25;;;;;;;24.48;4.72;;;;;;;;;;4911258;29;20079;-79
2022/04/11 03:02:53;;;;;;;13.63;5.70;;;;;;;;;;4903741;29;20875;-78
2022/04/11 03:05:20;;;;;;;21.88;5.47;;;;;;;;;;4920421;29;20075;-79
2022/04/11 03:07:47;;;;;;;21.33;5.40;;;;;;;;;;4915064;29;20048;-79
2022/04/11 03:10:15;;;;;;;27.48;5.10;;;;;;;;;;4912980;29;20114;-80
2022/04/11 03:12:42;;;;;;;27.13;5.75;;;;;;;;;;4914160;29;20127;-79
2022/04/11 03:15:11;;;;;;;17.35;5.40;;;;;;;;;;4917377;29;20052;-79
2022/04/11 03:17:41;;;;;;;21.23;5.20;;;;;;;;;;4928817;29;20067;-78
2022/04/11 03:20:09;;;;;;;22.90;6.65;;;;;;;;;;4912699;29;20131;-78
2022/04/11 03:22:36;;;;;;;26.08;6.13;;;;;;;;;;4925128;29;20505;-78
2022/04/11 03:25:04;;;;;;;14.15;5.18;;;;;;;;;;4912645;29;20127;-78
2022/04/11 03:27:32;;;;;;;22.77;6.25;;;;;;;;;;4914336;29;20136;-78
2022/04/11 03:30:03;;;;;;;18.17;5.43;;;;;;;;;;4912351;29;20771;-78
2022/04/11 03:32:30;;;;;;;25.25;5.68;;;;;;;;;;4912950;29;20127;-78
2022/04/11 03:34:57;;;;;;;28.23;7.38;;;;;;;;;;4913456;29;20048;-78
2022/04/11 03:37:24;;;;;;;22.35;6.18;;;;;;;;;;4912988;29;20059;-78
2022/04/11 03:39:52;;;;;;;20.63;5.70;;;;;;;;;;4912050;29;20087;-78
2022/04/11 03:42:19;;;;;;;25.30;5.70;;;;;;;;;;4913619;29;20083;-78
2022/04/11 03:44:46;;;;;;;22.88;6.32;;;;;;;;;;4913909;29;20080;-78
2022/04/11 03:47:13;;;;;;;25.50;6.57;;;;;;;;;;4913509;29;20052;-78
2022/04/11 03:49:40;;;;;;;25.50;7.05;;;;;;;;;;4915021;29;20084;-78
2022/04/11 03:52:09;;;;;;;30.65;6.25;;;;;;;;;;4916280;29;20417;-78
2022/04/11 03:54:36;;;;;;;24.25;6.47;;;;;;;;;;4920218;29;20119;-79
2022/04/11 03:57:04;;;;;;;28.10;8.07;;;;;;;;;;4915599;29;20055;-78
2022/04/11 03:59:31;;;;;;;26.83;6.30;;;;;;;;;;4916342;29;20048;-78
2022/04/11 04:01:58;;;;;;;27.27;6.03;;;;;;;;;;4915579;29;20066;-78
2022/04/11 04:04:26;;;;;;;25.08;7.60;;;;;;;;;;4911772;29;20103;-78
2022/04/11 04:06:53;;;;;;;28.77;6.90;;;;;;;;;;4914475;29;20138;-77
2022/04/11 04:09:20;;;;;;;21.55;5.30;;;;;;;;;;4928276;29;20056;-77
2022/04/11 04:11:47;;;;;;;23.67;6.15;;;;;;;;;;4912416;29;20048;-78
2022/04/11 04:14:15;;;;;;;22.17;6.93;;;;;;;;;;4913340;29;20057;-77
2022/04/11 04:16:42;;;;;;;27.77;6.72;;;;;;;;;;4915225;29;20959;-78
2022/04/11 04:19:10;;;;;;;23.00;6.55;;;;;;;;;;4928794;29;20466;-78
2022/04/11 04:21:38;;;;;;;21.10;6.03;;;;;;;;;;4914098;29;20064;-77
2022/04/11 04:24:05;;;;;;;25.88;6.22;;;;;;;;;;4911938;29;20147;-77
2022/04/11 04:26:32;;;;;;;21.52;6.32;;;;;;;;;;4915672;29;20052;-78
2022/04/11 04:29:00;;;;;;;21.40;6.57;;;;;;;;;;4913432;29;20145;-78
2022/04/11 04:31:27;;;;;;;20.17;5.53;;;;;;;;;;4914385;29;20151;-78
2022/04/11 04:33:54;;;;;;;32.00;6.07;;;;;;;;;;4915796;29;20048;-77
2022/04/11 04:36:21;;;;;;;27.88;6.90;;;;;;;;;;4915194;29;20143;-78
2022/04/11 04:38:49;;;;;;;25.20;6.13;;;;;;;;;;4917535;29;20076;-78
2022/04/11 04:41:16;;;;;;;20.90;6.97;;;;;;;;;;4916195;29;20473;-78
2022/04/11 04:43:43;;;;;;;25.83;7.10;;;;;;;;;;4916504;29;20130;-78
2022/04/11 04:46:11;;;;;;;27.45;6.90;;;;;;;;;;4920792;29;20425;-78
2022/04/11 04:48:38;;;;;;;24.90;7.20;;;;;;;;;;4936740;29;20056;-79
2022/04/11 04:51:08;;;;;;;19.92;6.22;;;;;;;;;;4923043;29;20135;-79
2022/04/11 04:53:35;;;;;;;25.50;6.43;;;;;;;;;;4916302;29;20096;-78
2022/04/11 04:56:02;;;;;;;35.25;6.55;;;;;;;;;;4917232;29;20134;-79
2022/04/11 04:58:29;;;;;;;30.88;6.85;;;;;;;;;;4929784;29;20080;-78
2022/04/11 05:00:56;;;;;;;33.97;9.10;;;;;;;;;;4918051;29;20159;-80
2022/04/11 05:03:24;;;;;;;24.92;7.28;;;;;;;;;;4922198;29;20056;-81
2022/04/11 05:05:51;;;;;;;28.30;7.53;;;;;;;;;;4930434;29;20107;-76
2022/04/11 05:08:18;;;;;;;18.50;6.80;;;;;;;;;;4914637;29;20139;-83
2022/04/11 05:10:46;;;;;;;24.23;7.18;;;;;;;;;;4909841;29;20060;-77
2022/04/11 05:13:13;;;;;;;19.02;7.60;;;;;;;;;;4915076;29;20147;-79
2022/04/11 05:15:42;;;;;;;29.17;8.07;;;;;;;;;;4912132;29;20127;-78
2022/04/11 05:18:10;;;;;;;30.77;9.57;;;;;;;;;;4922790;29;20509;-78
2022/04/11 05:20:37;;;;;;;23.90;8.23;;;;;;;;;;4915530;29;20072;-80
2022/04/11 05:23:04;;;;;;;26.40;7.20;;;;;;;;;;4916397;29;20075;-81
2022/04/11 05:25:31;;;;;;;31.25;8.32;;;;;;;;;;4916787;29;20079;-78
2022/04/11 05:27:59;;;;;;;31.10;8.43;;;;;;;;;;4931155;29;20087;-79
2022/04/11 05:30:26;;;;;;;22.50;7.72;;;;;;;;;;4921478;29;20080;-80
2022/04/11 05:32:54;;;;;;;40.83;10.02;;;;;;;;;;4922353;29;20144;-80
2022/04/11 05:35:21;;;;;;;24.30;8.05;;;;;;;;;;4914473;29;20139;-78
2022/04/11 05:37:48;;;;;;;24.83;7.93;;;;;;;;;;4923365;29;20075;-81
2022/04/11 05:40:15;;;;;;;26.33;8.20;;;;;;;;;;4920104;29;20131;-80
2022/04/11 05:42:43;;;;;;;29.50;8.93;;;;;;;;;;4916066;29;20533;-81
2022/04/11 05:45:10;;;;;;;25.13;9.60;;;;;;;;;;4932940;29;20075;-80
2022/04/11 05:47:37;;;;;;;26.27;8.32;;;;;;;;;;4915504;29;20540;-81
2022/04/11 05:50:05;;;;;;;19.60;7.85;;;;;;;;;;4914807;29;20052;-81
2022/04/11 05:52:32;;;;;;;35.80;8.02;;;;;;;;;;4920194;29;20135;-80
2022/04/11 05:55:00;;;;;;;19.92;8.35;;;;;;;;;;4930718;29;20075;-81
2022/04/11 05:57:27;;;;;;;29.67;9.05;;;;;;;;;;4930418;29;20124;-81
2022/04/11 05:59:54;;;;;;;27.98;8.40;;;;;;;;;;4930395;29;20083;-81
2022/04/11 06:02:22;;;;;;;22.17;8.15;;;;;;;;;;4914446;29;20099;-80
2022/04/11 06:04:49;;;;;;;20.33;8.10;;;;;;;;;;4936921;29;20056;-81
2022/04/11 06:07:20;;;;;;;24.02;8.55;;;;;;;;;;4915710;29;20090;-81
2022/04/11 06:09:48;;;;;;;20.00;8.05;;;;;;;;;;4932422;29;20052;-80
2022/04/11 06:12:17;;;;;;;27.00;8.30;;;;;;;;;;4915650;29;20608;-80
2022/04/11 06:14:44;;;;;;;19.63;7.38;;;;;;;;;;4915406;29;20059;-80
2022/04/11 06:17:11;;;;;;;19.70;7.93;;;;;;;;;;4915807;29;20083;-81
2022/04/11 06:19:38;;;;;;;30.00;8.80;;;;;;;;;;4915924;29;20052;-81
2022/04/11 06:22:06;;;;;;;26.65;7.45;;;;;;;;;;4915681;29;20059;-81
2022/04/11 06:24:33;;;;;;;21.02;7.72;;;;;;;;;;4915967;29;20781;-82
2022/04/11 06:27:01;;;;;;;25.38;8.65;;;;;;;;;;4915166;29;20076;-82
2022/04/11 06:29:28;;;;;;;15.88;7.72;;;;;;;;;;4913632;29;20063;-82
2022/04/11 06:31:55;;;;;;;29.40;10.57;;;;;;;;;;4912845;29;20868;-82
2022/04/11 06:34:22;;;;;;;21.92;8.90;;;;;;;;;;4913738;29;20176;-83
2022/04/11 06:36:49;;;;;;;24.25;8.95;;;;;;;;;;4913416;29;20126;-82
2022/04/11 06:39:17;;;;;;;28.00;8.63;;;;;;;;;;4900639;29;20052;-81
2022/04/11 06:41:44;;;;;;;23.00;9.07;;;;;;;;;;4912444;29;20063;-82
2022/04/11 06:44:11;;;;;;;21.52;9.20;;;;;;;;;;4912078;29;20139;-81
2022/04/11 06:46:39;;;;;;;26.65;9.73;;;;;;;;;;4914779;29;20520;-82
2022/04/11 06:49:06;;;;;;;27.50;9.13;;;;;;;;;;4910765;29;20508;-80
2022/04/11 06:51:33;;;;;;;19.30;8.65;;;;;;;;;;4926141;29;20139;-81
2022/04/11 06:54:00;;;;;;;23.23;8.95;;;;;;;;;;4907652;29;20135;-82
2022/04/11 06:56:27;;;;;;;19.27;7.43;;;;;;;;;;4911371;29;20083;-81
2022/04/11 06:58:55;;;;;;;24.35;7.75;;;;;;;;;;4926801;29;20052;-82
2022/04/11 07:01:22;;;;;;;21.25;11.20;;;;;;;;;;4926673;29;20135;-81
2022/04/11 07:03:51;;;;;;;19.45;7.18;;;;;;;;;;4913374;29;20044;-82
2022/04/11 07:06:18;;;;;;;21.52;7.40;;;;;;;;;;4932692;29;20060;-81
2022/04/11 07:08:46;;;;;;;15.90;7.20;;;;;;;;;;4916595;29;20131;-82
2022/04/11 07:11:13;;;;;;;17.33;6.78;;;;;;;;;;4915866;29;20052;-81
2022/04/11 07:13:40;;;;;;;15.40;6.53;;;;;;;;;;4912718;29;20111;-81
2022/04/11 07:16:07;;;;;;;16.90;6.10;;;;;;;;;;4907120;29;20080;-81
2022/04/11 07:18:35;;;;;;;22.77;6.82;;;;;;;;;;4910806;29;20056;-81
2022/04/11 07:21:03;;;;;;;18.17;7.18;;;;;;;;;;4913872;29;20411;-81
2022/04/11 07:23:30;;;;;;;19.95;6.78;;;;;;;;;;4912752;29;21830;-82
2022/04/11 07:25:57;;;;;;;14.80;6.90;;;;;;;;;;4912891;29;20094;-82
2022/04/11 07:28:25;;;;;;;20.58;7.20;;;;;;;;;;4912624;29;20056;-82
2022/04/11 07:30:52;;;;;;;14.93;7.22;;;;;;;;;;4912464;29;20131;-82
2022/04/11 07:33:20;;;;;;;13.00;5.63;;;;;;;;;;4928240;29;20072;-82
2022/04/11 07:35:47;;;;;;;18.02;6.10;;;;;;;;;;4913686;29;20056;-83
2022/04/11 07:38:14;;;;;;;18.30;6.13;;;;;;;;;;4915663;29;20497;-81
2022/04/11 07:40:47;;;;;;;14.75;5.75;;;;;;;;;;4913016;29;20052;-81
2022/04/11 07:43:15;;;;;;;14.23;5.45;;;;;;;;;;4912703;29;20103;-82
2022/04/11 07:45:42;;;;;;;13.10;5.78;;;;;;;;;;4914467;29;20103;-82
2022/04/11 07:48:10;;;;;;;13.23;5.95;;;;;;;;;;4911580;29;20120;-82
2022/04/11 07:50:37;;;;;;;12.75;5.32;;;;;;;;;;4913662;29;20481;-81
2022/04/11 07:53:05;;;;;;;10.85;5.15;;;;;;;;;;4913598;29;20087;-82
2022/04/11 07:55:33;;;;;;;11.13;4.88;;;;;;;;;;4913866;29;20088;-82
2022/04/11 07:58:00;;;;;;;16.00;4.45;;;;;;;;;;4913754;29;20135;-82
2022/04/11 08:00:28;;;;;;;11.50;4.95;;;;;;;;;;4913763;29;20532;-82
2022/04/11 08:02:56;;;;;;;13.85;4.50;;;;;;;;;;4913167;29;20127;-81
2022/04/11 08:05:24;;;;;;;13.02;5.25;;;;;;;;;;4912843;29;20309;-81
2022/04/11 08:07:51;;;;;;;12.20;5.07;;;;;;;;;;4909570;29;20545;-82
2022/04/11 08:10:19;;;;;;;14.52;4.78;;;;;;;;;;4913532;29;20091;-81
2022/04/11 08:12:53;;;;;;;13.40;5.78;;;;;;;;;;4913451;29;20052;-81
2022/04/11 08:15:20;;;;;;;15.70;5.00;;;;;;;;;;4914175;29;20056;-82
2022/04/11 08:17:47;;;;;;;9.48;4.55;;;;;;;;;;4911146;29;20083;-81
2022/04/11 08:20:15;;;;;;;12.10;3.75;;;;;;;;;;4912900;29;20044;-82
2022/04/11 08:22:45;;;;;;;12.00;4.85;;;;;;;;;;4912188;29;20493;-78
2022/04/11 08:25:14;;;;;;;14.45;4.80;;;;;;;;;;4928564;29;20499;-79
2022/04/11 08:27:42;;;;;;;11.90;4.50;;;;;;;;;;4924852;29;20150;-79
2022/04/11 08:30:12;;;;;;;6.80;3.50;;;;;;;;;;4924697;29;20138;-79
2022/04/11 08:32:40;;;;;;;11.07;4.20;;;;;;;;;;4909907;29;20056;-79
2022/04/11 08:35:08;;;;;;;11.43;3.67;;;;;;;;;;4907445;29;20068;-78
2022/04/11 08:37:40;;;;;;;11.23;3.95;;;;;;;;;;4914428;29;20087;-78
2022/04/11 08:40:08;;;;;;;8.45;3.88;;;;;;;;;;4912880;29;20090;-78
2022/04/11 08:42:35;;;;;;;10.07;3.78;;;;;;;;;;4913266;29;20151;-78
2022/04/11 08:45:09;;;;;;;7.18;3.95;;;;;;;;;;4905800;29;20056;-79
2022/04/11 08:47:36;;;;;;;11.30;3.45;;;;;;;;;;4910993;29;20083;-80
2022/04/11 08:50:04;;;;;;;5.47;2.78;;;;;;;;;;4912084;29;20064;-81
2022/04/11 08:52:35;;;;;;;13.13;3.85;;;;;;;;;;4913115;29;20116;-81
2022/04/11 08:55:03;;;;;;;8.40;3.80;;;;;;;;;;4911416;29;20138;-81
2022/04/11 08:57:31;;;;;;;10.32;3.30;;;;;;;;;;4909929;29;20056;-80
2022/04/11 09:00:25;;;;;;;11.52;3.92;;;;;;;;;;4910521;29;20052;-79
2022/04/11 09:02:52;;;;;;;10.07;3.38;;;;;;;;;;4911299;29;20174;-79
2022/04/11 09:05:21;;;;;;;8.52;3.05;;;;;;;;;;4925049;29;20101;-79
2022/04/11 09:07:56;;;;;;;12.00;4.65;;;;;;;;;;4912172;29;20493;-79
2022/04/11 09:10:23;;;;;;;10.80;3.33;;;;;;;;;;4912911;29;20164;-79
2022/04/11 09:12:54;;;;;;;12.40;4.07;;;;;;;;;;4911160;29;20135;-79
2022/04/11 09:15:25;;;;;;;11.30;3.75;;;;;;;;;;4911278;29;20059;-78
2022/04/11 09:17:53;;;;;;;13.85;4.70;;;;;;;;;;4876521;29;1079794;-79
2022/04/11 09:20:21;;;;;;;12.27;3.72;;;;;;;;;;4912572;29;20151;-78
2022/04/11 09:22:49;;;;;;;13.30;3.97;;;;;;;;;;4912321;29;20056;-77
2022/04/11 09:25:20;;;;;;;7.18;3.22;;;;;;;;;;4912047;29;20094;-78
2022/04/11 09:27:48;;;;;;;10.80;3.85;;;;;;;;;;4911535;29;20167;-79
2022/04/11 09:30:22;;;;;;;7.70;4.13;;;;;;;;;;4908034;29;20166;-78
2022/04/11 09:32:58;;;;;;;10.65;3.38;;;;;;;;;;4913026;29;21889;-78
2022/04/11 09:35:32;;;;;;;8.88;3.78;;;;;;;;;;4911296;29;20067;-78
2022/04/11 09:38:16;;;;;;;7.18;2.92;;;;;;;;;;4913002;29;20076;-78
2022/04/11 09:40:50;;;;;;;6.70;2.72;;;;;;;;;;4910957;29;20822;-78
2022/04/11 09:43:18;;;;;;;12.18;2.75;;;;;;;;;;4910252;29;20048;-79
2022/04/11 09:45:47;;;;;;;6.05;2.50;;;;;;;;;;4926125;29;20076;-78
2022/04/11 09:48:16;;;;;;;8.32;2.03;;;;;;;;;;4910471;29;20114;-78
2022/04/11 09:50:43;;;;;;;7.90;2.90;;;;;;;;;;4916991;29;20087;-79
2022/04/11 09:53:15;;;;;;;5.63;2.50;;;;;;;;;;4920342;29;20130;-78
2022/04/11 09:55:43;;;;;;;11.13;2.72;;;;;;;;;;4930367;29;20135;-79
2022/04/11 09:58:10;;;;;;;10.10;2.60;;;;;;;;;;4924865;29;20154;-79
2022/04/11 10:04:07;;;;;;;6.38;3.00;;;;;;;;;;4959922;23;20062;-82
2022/04/11 10:06:34;;;;;;;9.13;3.10;;;;;;;;;;4969612;28;20089;-82
2022/04/11 10:09:02;;;;;;;10.02;2.20;;;;;;;;;;4973821;28;20080;-82
2022/04/11 10:11:30;;;;;;;5.97;2.60;;;;;;;;;;4964470;28;20110;-79
2022/04/11 10:13:58;;;;;;;8.15;2.58;;;;;;;;;;4966037;28;20134;-79
2022/04/11 10:16:26;;;;;;;6.45;2.50;;;;;;;;;;4982550;28;20066;-79
2022/04/11 10:19:05;;;;;;;4.57;2.15;;;;;;;;;;4950003;29;20366;-79
2022/04/11 10:21:33;;;;;;;6.57;2.05;;;;;;;;;;4949196;29;20548;-79
2022/04/11 10:24:08;;;;;;;5.03;2.50;;;;;;;;;;4952639;28;20055;-79
2022/04/11 10:26:45;;;;;;;3.67;1.95;;;;;;;;;;4953636;28;20179;-79
2022/04/11 10:29:32;;;;;;;5.03;2.45;;;;;;;;;;4981257;28;20110;-79
2022/04/11 10:32:11;;;;;;;5.75;1.77;;;;;;;;;;4951470;28;20102;-79
2022/04/11 10:34:46;;;;;;;6.43;1.70;;;;;;;;;;4961459;28;20061;-79
2022/04/11 10:37:13;;;;;;;7.50;1.65;;;;;;;;;;4951284;29;20137;-79
2022/04/11 10:39:43;;;;;;;4.00;1.30;;;;;;;;;;4950048;29;20078;-79
2022/04/11 10:42:12;;;;;;;4.68;1.63;;;;;;;;;;4950876;28;20077;-79
2022/04/11 10:44:41;;;;;;;6.18;1.63;;;;;;;;;;4961139;28;20055;-79
2022/04/11 10:47:11;;;;;;;4.45;1.63;;;;;;;;;;4959363;28;20139;-79
2022/04/11 10:49:51;;;;;;;5.93;1.90;;;;;;;;;;4948951;28;20129;-80
2022/04/11 10:52:28;;;;;;;2.55;1.50;;;;;;;;;;4936458;29;20082;-80
2022/04/11 10:54:56;;;;;;;8.23;1.70;;;;;;;;;;4950453;28;20075;-83
2022/04/11 10:57:35;;;;;;;4.57;1.30;;;;;;;;;;4954037;29;20133;-83
2022/04/11 11:00:06;;;;;;;8.18;1.50;;;;;;;;;;4952217;29;20089;-83
2022/04/11 11:02:49;;;;;;;6.68;2.33;;;;;;;;;;4952568;29;20491;-83
2022/04/11 11:05:36;;;;;;;5.88;1.17;;;;;;;;;;4942728;29;20747;-83
2022/04/11 11:08:07;;;;;;;4.63;1.13;;;;;;;;;;4959600;28;20051;-83
2022/04/11 11:10:45;;;;;;;2.35;1.20;;;;;;;;;;4980051;28;20047;-83
2022/04/11 11:13:29;;;;;;;5.65;1.13;;;;;;;;;;4959520;28;20110;-83
2022/04/11 11:16:11;;;;;;;3.87;1.43;;;;;;;;;;4972782;28;20825;-83
2022/04/11 11:19:05;;;;;;;3.58;1.45;;;;;;;;;;4970369;28;20400;-84
2022/04/11 11:21:32;;;;;;;6.15;1.42;;;;;;;;;;4964474;28;20048;-83
2022/04/11 11:24:10;;;;;;;4.30;1.30;;;;;;;;;;4984300;28;20055;-82
2022/04/11 11:26:40;;;;;;;6.70;1.70;;;;;;;;;;4984830;28;20129;-82
2022/04/11 11:29:23;;;;;;;7.00;1.30;;;;;;;;;;4953722;28;20051;-82
2022/04/11 11:31:51;;;;;;;4.03;1.20;;;;;;;;;;4955143;28;20061;-82
2022/04/11 11:34:19;;;;;;;2.75;1.05;;;;;;;;;;4934597;29;20051;-82
2022/04/11 11:36:47;;;;;;;4.18;1.08;;;;;;;;;;4965620;28;20068;-82
2022/04/11 11:39:19;;;;;;;1.45;1.10;;;;;;;;;;4970324;28;20074;-82
2022/04/11 11:41:47;;;;;;;4.07;1.13;;;;;;;;;;4965017;28;20114;-81
2022/04/11 11:44:14;;;;;;;4.28;1.38;;;;;;;;;;4948867;29;20098;-82
2022/04/11 11:46:48;;;;;;;4.55;1.65;;;;;;;;;;4959646;28;20114;-82
2022/04/11 11:49:15;;;;;;;3.20;1.50;;;;;;;;;;4952775;29;20110;-82
2022/04/11 11:51:43;;;;;;;3.70;1.33;;;;;;;;;;4950743;29;20051;-82
2022/04/11 11:54:10;;;;;;;6.85;1.92;;;;;;;;;;4954443;28;20087;-81
2022/04/11 11:56:40;;;;;;;4.43;1.40;;;;;;;;;;4962562;28;20575;-82
2022/04/11 11:59:08;;;;;;;5.65;1.50;;;;;;;;;;4971187;28;20050;-82
2022/04/11 12:01:35;;;;;;;5.57;1.48;;;;;;;;;;4972354;28;20050;-82
2022/04/11 12:04:18;;;;;;;6.60;1.40;;;;;;;;;;4956647;28;20110;-81
2022/04/11 12:06:55;;;;;;;4.28;1.63;;;;;;;;;;4945829;29;20141;-82
2022/04/11 12:09:22;;;;;;;3.90;1.40;;;;;;;;;;4951648;28;20178;-81
2022/04/11 12:11:57;;;;;;;5.47;1.45;;;;;;;;;;4955162;28;20047;-82
2022/04/11 12:14:24;;;;;;;4.05;1.52;;;;;;;;;;4956510;28;20756;-81
2022/04/11 12:16:56;;;;;;;3.53;1.20;;;;;;;;;;4956058;29;20134;-82
2022/04/11 12:19:33;;;;;;;3.65;1.20;;;;;;;;;;4955418;29;20054;-81
2022/04/11 12:22:14;;;;;;;4.28;1.60;;;;;;;;;;4966438;28;20153;-81
2022/04/11 12:24:42;;;;;;;6.60;1.48;;;;;;;;;;4955367;29;20117;-81
2022/04/11 12:27:13;;;;;;;2.53;1.13;;;;;;;;;;4955890;29;20051;-80
2022/04/11 12:29:42;;;;;;;6.00;1.52;;;;;;;;;;4957958;28;20055;-80
2022/04/11 12:32:13;;;;;;;3.78;1.40;;;;;;;;;;4970926;28;20094;-81
2022/04/11 12:34:44;;;;;;;3.28;1.27;;;;;;;;;;4956984;28;20090;-79
2022/04/11 12:37:13;;;;;;;4.93;1.45;;;;;;;;;;4964763;28;20059;-79
2022/04/11 12:39:50;;;;;;;3.47;1.38;;;;;;;;;;4953158;29;20055;-79
2022/04/11 12:42:25;;;;;;;8.05;2.42;;;;;;;;;;4951986;29;20183;-80
2022/04/11 12:45:06;;;;;;;5.50;1.40;;;;;;;;;;4983811;28;20051;-80
2022/04/11 12:47:33;;;;;;;5.03;1.42;;;;;;;;;;4967604;28;20551;-79
2022/04/11 12:50:01;;;;;;;6.13;1.10;;;;;;;;;;4951246;29;20063;-79
2022/04/11 12:52:29;;;;;;;40.55;14.70;;;;;;;;;;4952104;28;20066;-79
2022/04/11 12:54:59;;;;;;;3.25;1.70;;;;;;;;;;4953663;28;20161;-78
2022/04/11 12:57:27;;;;;;;4.47;1.27;;;;;;;;;;4951943;29;20134;-78
2022/04/11 12:59:55;;;;;;;6.25;1.42;;;;;;;;;;4982669;28;20515;-78
2022/04/11 13:02:26;;;;;;;3.92;1.45;;;;;;;;;;4983227;28;20059;-78
2022/04/11 13:04:55;;;;;;;4.93;1.58;;;;;;;;;;4951008;28;20101;-79
2022/04/11 13:07:46;;;;;;;5.35;1.88;;;;;;;;;;4948527;29;20508;-79
2022/04/11 13:10:14;;;;;;;8.48;1.63;;;;;;;;;;4954526;28;20385;-79
2022/04/11 13:12:41;;;;;;;5.00;1.48;;;;;;;;;;4945142;28;20571;-79
2022/04/11 13:15:09;;;;;;;6.80;1.88;;;;;;;;;;4951327;28;20063;-79
2022/04/11 13:20:37;;;;;;;5.75;1.40;;;;;;;;;;4947017;28;20051;-79
2022/04/11 13:23:04;;;;;;;2.65;1.70;;;;;;;;;;4948505;28;20145;-79
2022/04/11 13:25:31;;;;;;;4.47;1.70;;;;;;;;;;4947755;28;20138;-79
2022/04/11 13:28:18;;;;;;;4.50;1.40;;;;;;;;;;4974759;28;20087;-79
2022/04/11 13:30:46;;;;;;;4.88;1.58;;;;;;;;;;4950749;28;20807;-79
2022/04/11 13:33:16;;;;;;;6.05;1.63;;;;;;;;;;4950119;28;20055;-80
2022/04/11 13:35:44;;;;;;;14.00;2.50;;;;;;;;;;4955313;28;20492;-79
2022/04/11 13:38:11;;;;;;;2.53;1.67;;;;;;;;;;4975266;28;20047;-79
2022/04/11 13:40:38;;;;;;;8.20;2.45;;;;;;;;;;4952138;29;20118;-79
2022/04/11 13:43:06;;;;;;;5.60;2.50;;;;;;;;;;4956340;28;20051;-78
2022/04/11 13:45:41;;;;;;;5.55;2.22;;;;;;;;;;4946392;29;20043;-79
2022/04/11 13:48:09;;;;;;;4.60;1.70;;;;;;;;;;4950919;29;20055;-79
2022/04/11 13:50:37;;;;;;;3.15;1.55;;;;;;;;;;4950878;29;20047;-78
2022/04/11 13:53:05;;;;;;;3.75;1.65;;;;;;;;;;4982012;28;20114;-78
2022/04/11 13:55:32;;;;;;;7.60;1.80;;;;;;;;;;4952899;28;20051;-79
2022/04/11 13:57:59;;;;;;;4.32;1.50;;;;;;;;;;4951892;28;20524;-79
2022/04/11 14:00:27;;;;;;;4.85;2.00;;;;;;;;;;4950911;29;20055;-79
2022/04/11 14:02:54;;;;;;;3.85;1.67;;;;;;;;;;4951701;29;20082;-79
2022/04/11 14:05:21;;;;;;;8.40;1.85;;;;;;;;;;4960570;28;20082;-80
2022/04/11 14:07:49;;;;;;;10.57;2.58;;;;;;;;;;4969900;28;20420;-79
2022/04/11 14:10:18;;;;;;;3.53;1.70;;;;;;;;;;4969725;28;20142;-79
2022/04/11 14:12:45;;;;;;;6.85;2.30;;;;;;;;;;4968903;28;20069;-79
2022/04/11 14:15:13;;;;;;;7.80;2.10;;;;;;;;;;4968500;28;20050;-78
2022/04/11 14:17:40;;;;;;;5.18;1.52;;;;;;;;;;4969096;28;20205;-79
2022/04/11 14:20:08;;;;;;;7.50;1.98;;;;;;;;;;4957934;28;20086;-78
2022/04/11 14:22:36;;;;;;;10.85;1.95;;;;;;;;;;4948084;29;20062;-78
2022/04/11 14:25:03;;;;;;;2.97;1.80;;;;;;;;;;4949124;29;20205;-78
2022/04/11 14:27:50;;;;;;;5.43;2.00;;;;;;;;;;4930369;29;20052;-79
2022/04/11 14:30:34;;;;;;;8.88;1.77;;;;;;;;;;4936532;29;20051;-79
2022/04/11 14:33:02;;;;;;;5.00;1.63;;;;;;;;;;4964240;28;20058;-79
2022/04/11 14:35:29;;;;;;;3.88;1.80;;;;;;;;;;4963854;28;20196;-79
2022/04/11 14:37:56;;;;;;;5.25;1.92;;;;;;;;;;4949665;29;20758;-79
2022/04/11 14:40:26;;;;;;;7.80;1.90;;;;;;;;;;4948216;28;20048;-79
2022/04/11 14:42:56;;;;;;;4.65;1.73;;;;;;;;;;4949181;28;20090;-79
2022/04/11 14:45:24;;;;;;;5.25;2.22;;;;;;;;;;4949955;28;20412;-79
2022/04/11 14:47:52;;;;;;;3.67;1.98;;;;;;;;;;4980489;28;20125;-79
2022/04/11 14:50:19;;;;;;;4.90;2.05;;;;;;;;;;4945071;28;20048;-79